Time,TemperatureF,DewpointF,PressureIn,WindDirection,WindDirectionDegrees,WindSpeedMPH,WindSpeedGustMPH,Humidity,HourlyPrecipIn,Conditions,Clouds,dailyrainin,SoftwareType,DateUTC
2013-06-03 00:07:00,67.5,53.1,29.21,North,3,0.0,22.8,60,0.16,,,0.12,VWS V13.01,2013-06-03 04:07:00,
2013-06-03 00:12:00,67.5,53.1,29.21,North,3,0.0,22.8,60,0.16,,,0.12,VWS V13.01,2013-06-03 04:12:00,
2013-06-03 00:17:00,67.5,53.1,29.21,North,3,0.0,22.8,60,0.16,,,0.12,VWS V13.01,2013-06-03 04:17:00,
2013-06-03 00:22:00,67.5,53.6,29.21,North,3,0.0,22.8,61,0.16,,,0.12,VWS V13.01,2013-06-03 04:22:00,
2013-06-03 00:27:00,67.5,53.6,29.18,NNW,342,0.0,22.8,61,0.16,,,0.12,VWS V13.01,2013-06-03 04:27:00,
2013-06-03 00:32:00,67.5,53.6,29.18,NNW,342,0.0,22.8,61,0.16,,,0.12,VWS V13.01,2013-06-03 04:32:00,
2013-06-03 00:37:00,67.3,53.4,29.18,NNW,342,0.0,22.8,61,0.16,,,0.12,VWS V13.01,2013-06-03 04:37:00,
2013-06-03 00:42:00,67.3,53.4,29.18,NNW,342,0.0,22.8,61,0.16,,,0.12,VWS V13.01,2013-06-03 04:42:00,
2013-06-03 00:47:00,67.3,53.8,29.18,NNW,342,0.0,22.8,62,0.16,,,0.12,VWS V13.01,2013-06-03 04:47:00,
2013-06-03 00:52:00,67.1,53.7,29.18,NNW,342,0.0,22.8,62,0.16,,,0.12,VWS V13.01,2013-06-03 04:52:00,
2013-06-03 00:57:00,66.9,53.5,29.18,NNW,342,0.0,22.8,62,0.16,,,0.12,VWS V13.01,2013-06-03 04:57:00,
2013-06-03 01:02:00,66.9,53.5,29.18,NNW,342,2.7,22.8,62,0.16,,,0.12,VWS V13.01,2013-06-03 05:02:00,
2013-06-03 01:07:00,66.7,53.3,29.18,North,0,0.0,22.8,62,0.16,,,0.12,VWS V13.01,2013-06-03 05:07:00,
2013-06-03 01:12:00,66.7,53.3,29.18,North,0,0.0,22.8,62,0.16,,,0.12,VWS V13.01,2013-06-03 05:12:00,
2013-06-03 01:17:00,66.7,53.8,29.18,North,0,0.0,22.8,63,0.16,,,0.12,VWS V13.01,2013-06-03 05:17:00,
2013-06-03 01:22:00,66.7,53.8,29.18,North,357,0.0,22.8,63,0.16,,,0.12,VWS V13.01,2013-06-03 05:22:00,
2013-06-03 01:27:00,66.7,53.8,29.21,North,0,0.0,22.8,63,0.16,,,0.12,VWS V13.01,2013-06-03 05:27:00,
2013-06-03 01:32:00,66.7,53.8,29.21,North,0,0.0,22.8,63,0.16,,,0.12,VWS V13.01,2013-06-03 05:32:00,
2013-06-03 01:37:00,66.7,53.8,29.21,North,357,0.0,22.8,63,0.16,,,0.12,VWS V13.01,2013-06-03 05:37:00,
2013-06-03 01:42:00,66.7,53.8,29.21,North,0,0.0,22.8,63,0.16,,,0.12,VWS V13.01,2013-06-03 05:42:00,
2013-06-03 01:47:00,66.7,53.8,29.21,North,357,0.0,22.8,63,0.16,,,0.12,VWS V13.01,2013-06-03 05:47:00,
2013-06-03 01:52:00,66.6,53.6,29.21,North,0,0.0,22.8,63,0.16,,,0.12,VWS V13.01,2013-06-03 05:52:00,
2013-06-03 01:57:00,66.4,53.4,29.21,North,0,0.0,22.8,63,0.16,,,0.12,VWS V13.01,2013-06-03 05:57:00,
2013-06-03 02:02:00,66.6,53.6,29.21,North,0,0.0,22.8,63,0.16,,,0.12,VWS V13.01,2013-06-03 06:02:00,
2013-06-03 02:07:00,66.6,53.6,29.21,North,0,0.0,22.8,63,0.16,,,0.12,VWS V13.01,2013-06-03 06:07:00,
2013-06-03 02:12:00,66.6,53.6,29.18,North,0,0.0,22.8,63,0.16,,,0.12,VWS V13.01,2013-06-03 06:12:00,
2013-06-03 02:17:00,66.6,53.6,29.18,North,0,0.0,22.8,63,0.16,,,0.12,VWS V13.01,2013-06-03 06:17:00,
2013-06-03 02:22:00,66.4,53.4,29.18,North,0,0.0,22.8,63,0.16,,,0.12,VWS V13.01,2013-06-03 06:22:00,
2013-06-03 02:27:00,66.4,53.8,29.18,North,0,0.0,22.8,64,0.16,,,0.12,VWS V13.01,2013-06-03 06:27:00,
2013-06-03 02:32:00,66.4,53.8,29.18,North,357,0.0,22.8,64,0.16,,,0.12,VWS V13.01,2013-06-03 06:32:00,
2013-06-03 02:37:00,66.4,53.8,29.18,North,0,0.0,22.8,64,0.16,,,0.12,VWS V13.01,2013-06-03 06:37:00,
2013-06-03 02:42:00,66.2,53.2,29.18,North,0,0.0,22.8,63,0.16,,,0.12,VWS V13.01,2013-06-03 06:42:00,
2013-06-03 02:47:00,66.0,53.5,29.18,North,0,0.0,22.8,64,0.16,,,0.12,VWS V13.01,2013-06-03 06:47:00,
2013-06-03 02:52:00,65.8,53.3,29.18,North,0,0.0,22.8,64,0.16,,,0.12,VWS V13.01,2013-06-03 06:52:00,
2013-06-03 02:58:00,65.8,53.3,29.18,North,0,0.0,22.8,64,0.16,,,0.12,VWS V13.01,2013-06-03 06:58:00,
2013-06-03 03:02:00,65.8,53.3,29.18,North,357,0.0,22.8,64,0.16,,,0.12,VWS V13.01,2013-06-03 07:02:00,
2013-06-03 03:08:00,65.8,53.3,29.18,North,0,0.0,22.8,64,0.16,,,0.12,VWS V13.01,2013-06-03 07:08:00,
2013-06-03 03:13:00,65.7,53.2,29.18,North,0,0.0,22.8,64,0.16,,,0.12,VWS V13.01,2013-06-03 07:13:00,
2013-06-03 03:18:00,65.5,53.0,29.18,North,357,0.0,22.8,64,0.16,,,0.12,VWS V13.01,2013-06-03 07:18:00,
2013-06-03 03:23:00,65.3,52.8,29.18,North,0,0.0,22.8,64,0.16,,,0.12,VWS V13.01,2013-06-03 07:23:00,
2013-06-03 03:28:00,65.5,53.4,29.18,North,0,0.0,22.8,65,0.16,,,0.12,VWS V13.01,2013-06-03 07:28:00,
2013-06-03 03:33:00,65.3,53.2,29.18,North,0,0.0,22.8,65,0.16,,,0.12,VWS V13.01,2013-06-03 07:33:00,
2013-06-03 03:38:00,65.3,53.2,29.18,NNW,330,0.0,22.8,65,0.16,,,0.12,VWS V13.01,2013-06-03 07:38:00,
2013-06-03 03:43:00,65.3,53.2,29.18,NNW,330,0.0,22.8,65,0.16,,,0.12,VWS V13.01,2013-06-03 07:43:00,
2013-06-03 03:48:00,65.3,53.2,29.18,NNW,330,0.0,22.8,65,0.16,,,0.12,VWS V13.01,2013-06-03 07:48:00,
2013-06-03 03:53:00,65.3,53.2,29.18,NNW,330,0.0,22.8,65,0.16,,,0.12,VWS V13.01,2013-06-03 07:53:00,
2013-06-03 03:58:00,65.3,53.2,29.21,NNW,330,0.0,22.8,65,0.16,,,0.12,VWS V13.01,2013-06-03 07:58:00,
2013-06-03 04:03:00,65.3,53.2,29.21,NW,304,2.7,22.8,65,0.16,,,0.12,VWS V13.01,2013-06-03 08:03:00,
2013-06-03 04:08:00,65.3,53.2,29.21,NNW,333,3.6,22.8,65,0.16,,,0.12,VWS V13.01,2013-06-03 08:08:00,
2013-06-03 04:13:00,65.1,53.1,29.21,NNW,333,3.1,22.8,65,0.16,,,0.12,VWS V13.01,2013-06-03 08:13:00,
2013-06-03 04:18:00,65.1,53.1,29.21,NW,322,0.0,22.8,65,0.16,,,0.12,VWS V13.01,2013-06-03 08:18:00,
2013-06-03 04:23:00,65.1,53.1,29.21,NW,322,0.0,22.8,65,0.16,,,0.12,VWS V13.01,2013-06-03 08:23:00,
2013-06-03 04:28:00,65.1,53.1,29.21,NNW,329,0.0,22.8,65,0.16,,,0.12,VWS V13.01,2013-06-03 08:28:00,
2013-06-03 04:33:00,65.1,53.1,29.21,NW,319,0.0,22.8,65,0.16,,,0.12,VWS V13.01,2013-06-03 08:33:00,
2013-06-03 04:38:00,64.9,52.9,29.21,NW,319,0.0,22.8,65,0.16,,,0.12,VWS V13.01,2013-06-03 08:38:00,
2013-06-03 04:43:00,64.8,52.7,29.21,NW,319,0.0,22.8,65,0.16,,,0.12,VWS V13.01,2013-06-03 08:43:00,
2013-06-03 04:48:00,64.8,52.7,29.21,NW,319,0.0,22.8,65,0.16,,,0.12,VWS V13.01,2013-06-03 08:48:00,
2013-06-03 04:53:00,64.6,52.6,29.21,NW,319,0.0,22.8,65,0.16,,,0.12,VWS V13.01,2013-06-03 08:53:00,
2013-06-03 04:58:00,64.4,52.4,29.21,NW,319,0.0,22.8,65,0.16,,,0.12,VWS V13.01,2013-06-03 08:58:00,
2013-06-03 05:03:00,64.4,52.4,29.21,WNW,298,0.0,22.8,65,0.16,,,0.12,VWS V13.01,2013-06-03 09:03:00,
2013-06-03 05:08:00,64.4,52.4,29.21,WNW,298,0.0,22.8,65,0.16,,,0.12,VWS V13.01,2013-06-03 09:08:00,
2013-06-03 05:13:00,64.4,52.4,29.21,WNW,298,0.0,22.8,65,0.16,,,0.12,VWS V13.01,2013-06-03 09:13:00,
2013-06-03 05:18:00,64.2,52.2,29.21,WNW,298,0.0,22.8,65,0.16,,,0.12,VWS V13.01,2013-06-03 09:18:00,
2013-06-03 05:23:00,64.0,52.0,29.21,West,273,0.0,22.8,65,0.16,,,0.12,VWS V13.01,2013-06-03 09:23:00,
2013-06-03 05:28:00,63.9,51.9,29.18,WSW,237,3.6,22.8,65,0.16,,,0.12,VWS V13.01,2013-06-03 09:28:00,
2013-06-03 05:33:00,63.5,51.5,29.18,WSW,256,0.0,22.8,65,0.16,,,0.12,VWS V13.01,2013-06-03 09:33:00,
2013-06-03 05:38:00,63.5,51.5,29.18,WSW,251,0.0,22.8,65,0.16,,,0.12,VWS V13.01,2013-06-03 09:38:00,
2013-06-03 05:43:00,63.3,51.4,29.18,WSW,251,0.0,22.8,65,0.16,,,0.12,VWS V13.01,2013-06-03 09:43:00,
2013-06-03 05:48:00,63.1,51.2,29.18,WSW,248,0.0,22.8,65,0.16,,,0.12,VWS V13.01,2013-06-03 09:48:00,
2013-06-03 05:53:00,63.1,51.2,29.18,WSW,248,0.0,22.8,65,0.16,,,0.12,VWS V13.01,2013-06-03 09:53:00,
2013-06-03 05:58:00,63.0,51.0,29.21,WSW,248,0.0,22.8,65,0.16,,,0.12,VWS V13.01,2013-06-03 09:58:00,
2013-06-03 06:03:00,63.0,51.0,29.21,WSW,248,0.0,22.8,65,0.16,,,0.12,VWS V13.01,2013-06-03 10:03:00,
2013-06-03 06:08:00,63.0,51.0,29.21,WSW,248,0.0,22.8,65,0.16,,,0.12,VWS V13.01,2013-06-03 10:08:00,
2013-06-03 06:13:00,63.0,51.4,29.21,WSW,248,0.0,22.8,66,0.16,,,0.12,VWS V13.01,2013-06-03 10:13:00,
2013-06-03 06:18:00,63.0,51.4,29.21,WSW,249,0.0,22.8,66,0.16,,,0.12,VWS V13.01,2013-06-03 10:18:00,
2013-06-03 06:23:00,63.0,51.4,29.21,WSW,249,0.0,22.8,66,0.16,,,0.12,VWS V13.01,2013-06-03 10:23:00,
2013-06-03 06:28:00,63.0,51.4,29.21,WSW,251,0.0,22.8,66,0.16,,,0.12,VWS V13.01,2013-06-03 10:28:00,
2013-06-03 06:33:00,63.0,51.4,29.21,WSW,252,0.0,22.8,66,0.16,,,0.12,VWS V13.01,2013-06-03 10:33:00,
2013-06-03 06:38:00,62.8,51.3,29.21,WSW,253,0.0,22.8,66,0.16,,,0.12,VWS V13.01,2013-06-03 10:38:00,
2013-06-03 06:43:00,62.8,51.3,29.21,NW,321,0.0,22.8,66,0.16,,,0.12,VWS V13.01,2013-06-03 10:43:00,
2013-06-03 06:48:00,62.6,51.1,29.21,NW,318,0.0,22.8,66,0.16,,,0.12,VWS V13.01,2013-06-03 10:48:00,
2013-06-03 06:53:00,62.6,51.1,29.21,NNW,328,2.2,22.8,66,0.16,,,0.12,VWS V13.01,2013-06-03 10:53:00,
2013-06-03 06:58:00,62.6,51.1,29.21,NW,318,0.0,22.8,66,0.16,,,0.12,VWS V13.01,2013-06-03 10:58:00,
2013-06-03 07:03:00,62.6,51.1,29.21,WNW,302,0.0,22.8,66,0.16,,,0.12,VWS V13.01,2013-06-03 11:03:00,
2013-06-03 07:08:00,62.6,51.1,29.21,SSW,208,0.0,22.8,66,0.16,,,0.12,VWS V13.01,2013-06-03 11:08:00,
2013-06-03 07:13:00,62.6,51.1,29.23,SSW,208,0.0,22.8,66,0.16,,,0.12,VWS V13.01,2013-06-03 11:13:00,
2013-06-03 07:18:00,62.6,51.1,29.23,West,267,0.0,22.8,66,0.16,,,0.12,VWS V13.01,2013-06-03 11:18:00,
2013-06-03 07:23:00,62.6,51.1,29.23,SW,236,0.0,22.8,66,0.16,,,0.12,VWS V13.01,2013-06-03 11:23:00,
2013-06-03 07:28:00,62.6,51.1,29.23,WNW,302,0.0,22.8,66,0.16,,,0.12,VWS V13.01,2013-06-03 11:28:00,
2013-06-03 07:33:00,62.6,51.1,29.23,WNW,302,0.0,22.8,66,0.16,,,0.12,VWS V13.01,2013-06-03 11:33:00,
2013-06-03 07:38:00,62.6,51.1,29.23,West,277,0.0,22.8,66,0.16,,,0.12,VWS V13.01,2013-06-03 11:38:00,
2013-06-03 07:43:00,62.6,51.1,29.23,West,277,0.0,22.8,66,0.16,,,0.12,VWS V13.01,2013-06-03 11:43:00,
2013-06-03 07:48:00,62.8,51.3,29.23,West,277,0.0,22.8,66,0.16,,,0.12,VWS V13.01,2013-06-03 11:48:00,
2013-06-03 07:53:00,62.8,51.3,29.23,WNW,290,0.0,22.8,66,0.16,,,0.12,VWS V13.01,2013-06-03 11:53:00,
2013-06-03 07:58:00,63.0,51.4,29.23,WNW,282,0.0,22.8,66,0.16,,,0.12,VWS V13.01,2013-06-03 11:58:00,
2013-06-03 08:03:00,63.0,51.4,29.23,SW,235,0.0,22.8,66,0.16,,,0.12,VWS V13.01,2013-06-03 12:03:00,
2013-06-03 08:08:00,63.1,51.6,29.23,WNW,287,0.0,22.8,66,0.16,,,0.12,VWS V13.01,2013-06-03 12:08:00,
2013-06-03 08:13:00,63.1,51.6,29.23,West,270,0.0,22.8,66,0.16,,,0.12,VWS V13.01,2013-06-03 12:13:00,
2013-06-03 08:18:00,63.1,51.6,29.23,SW,233,3.1,22.8,66,0.16,,,0.12,VWS V13.01,2013-06-03 12:18:00,
2013-06-03 08:23:00,63.3,51.8,29.23,SW,225,2.2,22.8,66,0.16,,,0.12,VWS V13.01,2013-06-03 12:23:00,
2013-06-03 08:28:00,63.5,52.0,29.23,SW,233,3.1,22.8,66,0.16,,,0.12,VWS V13.01,2013-06-03 12:28:00,
2013-06-03 08:33:00,63.7,52.1,29.23,WSW,242,0.0,22.8,66,0.16,,,0.12,VWS V13.01,2013-06-03 12:33:00,
2013-06-03 08:38:00,63.9,52.3,29.23,NNW,327,2.7,22.8,66,0.16,,,0.12,VWS V13.01,2013-06-03 12:38:00,
2013-06-03 08:43:00,63.9,51.9,29.23,NW,322,2.7,22.8,65,0.16,,,0.12,VWS V13.01,2013-06-03 12:43:00,
2013-06-03 08:48:00,64.0,52.0,29.23,WSW,258,0.0,22.8,65,0.16,,,0.12,VWS V13.01,2013-06-03 12:48:00,
2013-06-03 08:53:00,64.2,51.8,29.23,East,91,0.0,22.8,64,0.16,,,0.12,VWS V13.01,2013-06-03 12:53:00,
2013-06-03 08:58:00,64.4,52.0,29.23,SW,235,2.2,22.8,64,0.16,,,0.12,VWS V13.01,2013-06-03 12:58:00,
2013-06-03 09:03:00,64.4,51.5,29.23,NW,316,2.2,22.8,63,0.16,,,0.12,VWS V13.01,2013-06-03 13:03:00,
2013-06-03 09:08:00,64.6,51.7,29.23,NW,315,0.0,22.8,63,0.16,,,0.12,VWS V13.01,2013-06-03 13:08:00,
2013-06-03 09:13:00,64.8,51.9,29.26,NW,323,2.7,22.8,63,0.16,,,0.12,VWS V13.01,2013-06-03 13:13:00,
2013-06-03 09:19:00,64.8,51.9,29.26,NNE,18,0.0,22.8,63,0.16,,,0.12,VWS V13.01,2013-06-03 13:19:00,
2013-06-03 09:24:00,64.6,51.7,29.26,NNW,330,3.1,22.8,63,0.16,,,0.12,VWS V13.01,2013-06-03 13:24:00,
2013-06-03 09:29:00,64.6,51.3,29.26,North,357,0.0,22.8,62,0.16,,,0.12,VWS V13.01,2013-06-03 13:29:00,
2013-06-03 09:34:00,64.8,50.6,29.26,North,353,0.0,22.8,60,0.16,,,0.12,VWS V13.01,2013-06-03 13:34:00,
2013-06-03 09:39:00,64.9,50.3,29.26,NNW,334,3.1,22.8,59,0.16,,,0.12,VWS V13.01,2013-06-03 13:39:00,
2013-06-03 09:44:00,64.9,48.9,29.26,NNW,339,0.0,22.8,56,0.16,,,0.12,VWS V13.01,2013-06-03 13:44:00,
2013-06-03 09:49:00,65.1,48.6,29.26,NW,313,0.0,22.8,55,0.16,,,0.12,VWS V13.01,2013-06-03 13:49:00,
2013-06-03 09:54:00,65.1,48.1,29.26,NNW,340,4.0,22.8,54,0.16,,,0.12,VWS V13.01,2013-06-03 13:54:00,
2013-06-03 09:59:00,65.1,46.6,29.26,ENE,69,0.0,22.8,51,0.16,,,0.12,VWS V13.01,2013-06-03 13:59:00,
2013-06-03 10:04:00,65.3,44.6,29.26,NNW,342,4.0,22.8,47,0.16,,,0.12,VWS V13.01,2013-06-03 14:04:00,
2013-06-03 10:13:00,65.1,42.7,29.26,North,353,2.2,22.8,44,0.16,,,0.12,VWS V13.01,2013-06-03 14:13:00,
2013-06-03 10:18:00,65.3,42.8,29.26,North,353,0.0,22.8,44,0.16,,,0.12,VWS V13.01,2013-06-03 14:18:00,
2013-06-03 10:22:00,65.5,43.0,29.26,NNW,337,2.7,22.8,44,0.16,,,0.12,VWS V13.01,2013-06-03 14:22:00,
2013-06-03 10:27:00,65.5,43.0,29.26,North,357,4.5,22.8,44,0.16,,,0.12,VWS V13.01,2013-06-03 14:27:00,
2013-06-03 10:32:00,65.5,43.0,29.26,NNW,327,0.0,22.8,44,0.16,,,0.12,VWS V13.01,2013-06-03 14:32:00,
2013-06-03 10:37:00,65.5,43.0,29.26,NW,304,0.0,22.8,44,0.16,,,0.12,VWS V13.01,2013-06-03 14:37:00,
2013-06-03 10:42:00,65.7,43.2,29.26,NNW,341,0.0,22.8,44,0.16,,,0.12,VWS V13.01,2013-06-03 14:42:00,
2013-06-03 10:47:00,65.8,43.3,29.26,NNW,342,3.6,22.8,44,0.16,,,0.12,VWS V13.01,2013-06-03 14:47:00,
2013-06-03 10:52:00,65.8,43.3,29.26,West,268,0.0,22.8,44,0.16,,,0.12,VWS V13.01,2013-06-03 14:52:00,
2013-06-03 10:57:00,66.2,43.7,29.26,West,264,0.0,22.8,44,0.16,,,0.12,VWS V13.01,2013-06-03 14:57:00,
2013-06-03 11:02:00,66.4,43.2,29.26,West,260,0.0,22.8,43,0.16,,,0.12,VWS V13.01,2013-06-03 15:02:00,
2013-06-03 11:07:00,66.6,43.4,29.26,West,276,0.0,22.8,43,0.16,,,0.12,VWS V13.01,2013-06-03 15:07:00,
2013-06-03 11:12:00,66.6,42.2,29.26,NNW,345,0.0,22.8,41,0.16,,,0.12,VWS V13.01,2013-06-03 15:12:00,
2013-06-03 11:17:00,66.4,40.7,29.26,NNW,337,0.0,22.8,39,0.16,,,0.12,VWS V13.01,2013-06-03 15:17:00,
2013-06-03 11:22:00,66.4,40.0,29.26,NNW,338,4.0,22.8,38,0.16,,,0.12,VWS V13.01,2013-06-03 15:22:00,
2013-06-03 11:27:00,66.4,40.0,29.26,North,353,0.0,22.8,38,0.16,,,0.12,VWS V13.01,2013-06-03 15:27:00,
2013-06-03 11:32:00,66.6,39.5,29.26,NW,304,2.7,22.8,37,0.16,,,0.12,VWS V13.01,2013-06-03 15:32:00,
2013-06-03 11:37:00,66.7,39.0,29.26,WNW,289,3.1,22.8,36,0.16,,,0.00,VWS V13.01,2013-06-03 15:37:00,
2013-06-03 11:42:00,67.1,39.3,29.29,NW,317,2.7,22.8,36,0.16,,,0.00,VWS V13.01,2013-06-03 15:42:00,
2013-06-03 11:47:00,67.6,39.8,29.29,NNW,345,4.0,22.8,36,0.16,,,0.00,VWS V13.01,2013-06-03 15:47:00,
2013-06-03 11:52:00,67.8,37.7,29.29,North,357,2.2,22.8,33,0.16,,,0.00,VWS V13.01,2013-06-03 15:52:00,
2013-06-03 11:57:00,67.8,37.7,29.29,NNW,328,3.1,22.8,33,0.16,,,0.00,VWS V13.01,2013-06-03 15:57:00,
2013-06-03 12:02:00,68.0,37.8,29.29,NW,324,0.0,22.8,33,0.16,,,0.00,VWS V13.01,2013-06-03 16:02:00,
2013-06-03 12:07:00,68.0,37.1,29.29,NNW,335,4.9,22.8,32,0.16,,,0.00,VWS V13.01,2013-06-03 16:07:00,
2013-06-03 12:12:00,68.4,38.2,29.29,SSW,211,0.0,22.8,33,0.16,,,0.00,VWS V13.01,2013-06-03 16:12:00,
2013-06-03 12:17:00,69.1,36.4,29.29,WSW,245,3.1,22.8,30,0.16,,,0.00,VWS V13.01,2013-06-03 16:17:00,
2013-06-03 12:22:00,69.1,35.5,29.29,SW,223,3.6,22.8,29,0.16,,,0.00,VWS V13.01,2013-06-03 16:22:00,
2013-06-03 12:28:00,69.4,35.8,29.29,NNW,344,2.7,22.8,29,0.16,,,0.00,VWS V13.01,2013-06-03 16:28:00,
2013-06-03 12:32:00,70.0,34.5,29.29,South,183,3.1,22.8,27,0.16,,,0.00,VWS V13.01,2013-06-03 16:32:00,
2013-06-03 12:37:00,70.5,34.0,29.29,NW,325,2.7,22.8,26,0.16,,,0.00,VWS V13.01,2013-06-03 16:37:00,
2013-06-03 12:42:00,70.5,32.0,29.29,WNW,302,0.0,22.8,24,0.16,,,0.00,VWS V13.01,2013-06-03 16:42:00,
2013-06-03 12:48:00,70.3,31.9,29.29,West,278,2.7,22.8,24,0.16,,,0.00,VWS V13.01,2013-06-03 16:48:00,
2013-06-03 12:52:00,70.2,31.7,29.29,WNW,288,0.0,22.8,24,0.16,,,0.00,VWS V13.01,2013-06-03 16:52:00,
2013-06-03 12:57:00,69.8,31.4,29.29,North,1,3.1,22.8,24,0.16,,,0.00,VWS V13.01,2013-06-03 16:57:00,
2013-06-03 13:02:00,70.2,32.7,29.29,WNW,290,3.6,22.8,25,0.16,,,0.00,VWS V13.01,2013-06-03 17:02:00,
2013-06-03 13:08:00,70.9,32.3,29.29,NW,323,0.0,22.8,24,0.16,,,0.00,VWS V13.01,2013-06-03 17:08:00,
2013-06-03 13:13:00,70.9,31.3,29.26,WSW,245,4.0,22.8,23,0.16,,,0.00,VWS V13.01,2013-06-03 17:13:00,
2013-06-03 13:18:00,70.7,31.1,29.26,NW,322,4.9,22.8,23,0.16,,,0.00,VWS V13.01,2013-06-03 17:18:00,
2013-06-03 13:23:00,71.2,31.6,29.26,WNW,294,6.7,22.8,23,0.16,,,0.00,VWS V13.01,2013-06-03 17:23:00,
2013-06-03 13:28:00,71.4,31.7,29.26,SW,215,3.1,22.8,23,0.16,,,0.00,VWS V13.01,2013-06-03 17:28:00,
2013-06-03 13:33:00,71.6,30.8,29.26,WSW,258,4.0,22.8,22,0.16,,,0.00,VWS V13.01,2013-06-03 17:33:00,
2013-06-03 13:38:00,72.0,29.9,29.26,SW,236,4.0,22.8,21,0.16,,,0.00,VWS V13.01,2013-06-03 17:38:00,
2013-06-03 13:43:00,72.1,31.2,29.26,WNW,297,0.0,22.8,22,0.16,,,0.00,VWS V13.01,2013-06-03 17:43:00,
2013-06-03 13:48:00,72.5,27.9,29.26,West,262,3.1,22.8,19,0.16,,,0.00,VWS V13.01,2013-06-03 17:48:00,
2013-06-03 13:53:00,73.4,24.5,29.26,North,7,3.6,22.8,16,0.16,,,0.00,VWS V13.01,2013-06-03 17:53:00,
2013-06-03 13:58:00,73.2,24.4,29.26,WSW,246,4.0,22.8,16,0.16,,,0.00,VWS V13.01,2013-06-03 17:58:00,
2013-06-03 14:03:00,72.5,23.8,29.26,WNW,300,3.6,22.8,16,0.16,,,0.00,VWS V13.01,2013-06-03 18:03:00,
2013-06-03 14:08:00,72.5,27.9,29.26,NNW,327,4.9,22.8,19,0.16,,,0.00,VWS V13.01,2013-06-03 18:08:00,
2013-06-03 14:13:00,72.7,23.9,29.26,North,11,3.6,22.8,16,0.16,,,0.00,VWS V13.01,2013-06-03 18:13:00,
2013-06-03 14:18:00,73.4,24.5,29.26,South,179,3.1,22.8,16,0.16,,,0.00,VWS V13.01,2013-06-03 18:18:00,
2013-06-03 14:23:00,73.9,25.0,29.26,SW,229,3.6,22.8,16,0.16,,,0.00,VWS V13.01,2013-06-03 18:23:00,
2013-06-03 14:28:00,73.9,25.0,29.26,NNE,20,8.1,22.8,16,0.16,,,0.00,VWS V13.01,2013-06-03 18:28:00,
2013-06-03 14:33:00,73.4,24.5,29.26,NNE,23,2.7,22.8,16,0.16,,,0.00,VWS V13.01,2013-06-03 18:33:00,
2013-06-03 14:38:00,73.2,21.2,29.26,ESE,111,3.1,22.8,14,0.16,,,0.00,VWS V13.01,2013-06-03 18:38:00,
2013-06-03 14:43:00,73.0,21.1,29.23,North,2,5.8,22.8,14,0.16,,,0.00,VWS V13.01,2013-06-03 18:43:00,
2013-06-03 14:48:00,73.0,21.1,29.23,NNW,339,3.1,22.8,14,0.16,,,0.00,VWS V13.01,2013-06-03 18:48:00,
2013-06-03 14:53:00,73.0,21.1,29.23,North,357,0.0,22.8,14,0.16,,,0.00,VWS V13.01,2013-06-03 18:53:00,
2013-06-03 14:58:00,73.4,19.6,29.23,SE,143,2.7,22.8,13,0.16,,,0.00,VWS V13.01,2013-06-03 18:58:00,
2013-06-03 15:03:00,74.3,20.3,29.23,SE,128,4.5,22.8,13,0.16,,,0.00,VWS V13.01,2013-06-03 19:03:00,
2013-06-03 15:08:00,75.2,21.0,29.23,WNW,285,8.1,22.8,13,0.16,,,0.00,VWS V13.01,2013-06-03 19:08:00,
2013-06-03 15:13:00,75.0,20.9,29.23,WNW,293,2.7,22.8,13,0.16,,,0.00,VWS V13.01,2013-06-03 19:13:00,
2013-06-03 15:18:00,75.2,21.0,29.23,WNW,298,3.1,22.8,13,0.16,,,0.00,VWS V13.01,2013-06-03 19:18:00,
2013-06-03 15:23:00,75.4,15.1,29.23,WSW,245,4.0,22.8,10,0.16,,,0.00,VWS V13.01,2013-06-03 19:23:00,
2013-06-03 15:28:00,75.4,15.1,29.23,SSW,204,3.6,22.8,10,0.16,,,0.00,VWS V13.01,2013-06-03 19:28:00,
2013-06-03 15:33:00,74.8,16.9,29.23,NNW,333,6.3,22.8,11,0.16,,,0.00,VWS V13.01,2013-06-03 19:33:00,
2013-06-03 15:38:00,74.3,16.4,29.23,NNW,343,5.4,22.8,11,0.16,,,0.00,VWS V13.01,2013-06-03 19:38:00,
2013-06-03 15:43:00,74.7,16.7,29.23,West,265,3.6,22.8,11,0.16,,,0.00,VWS V13.01,2013-06-03 19:43:00,
2013-06-03 15:48:00,75.4,15.1,29.23,West,271,0.0,22.8,10,0.16,,,0.00,VWS V13.01,2013-06-03 19:48:00,
2013-06-03 15:53:00,75.6,15.2,29.23,NNW,329,3.1,22.8,10,0.16,,,0.00,VWS V13.01,2013-06-03 19:53:00,
2013-06-03 15:58:00,75.4,15.1,29.23,NW,307,5.4,22.8,10,0.16,,,0.00,VWS V13.01,2013-06-03 19:58:00,
2013-06-03 16:04:00,74.7,16.7,29.23,WNW,292,4.0,22.8,11,0.16,,,0.00,VWS V13.01,2013-06-03 20:04:00,
2013-06-03 16:09:00,74.3,16.4,29.23,NW,304,4.9,22.8,11,0.16,,,0.00,VWS V13.01,2013-06-03 20:09:00,
2013-06-03 16:14:00,74.5,16.6,29.23,SW,231,2.7,22.8,11,0.16,,,0.00,VWS V13.01,2013-06-03 20:14:00,
2013-06-03 16:19:00,75.6,15.2,29.23,WSW,255,2.7,22.8,10,0.16,,,0.00,VWS V13.01,2013-06-03 20:19:00,
2013-06-03 16:24:00,76.3,15.8,29.23,NNW,331,8.1,22.8,10,0.16,,,0.00,VWS V13.01,2013-06-03 20:24:00,
2013-06-03 16:29:00,76.1,15.6,29.21,NW,309,8.3,22.8,10,0.16,,,0.00,VWS V13.01,2013-06-03 20:29:00,
2013-06-03 16:34:00,75.4,15.1,29.21,North,350,6.3,22.8,10,0.16,,,0.00,VWS V13.01,2013-06-03 20:34:00,
2013-06-03 16:39:00,75.4,15.1,29.21,North,0,3.1,22.8,10,0.16,,,0.00,VWS V13.01,2013-06-03 20:39:00,
2013-06-03 16:44:00,75.2,14.9,29.21,North,6,3.6,22.8,10,0.16,,,0.00,VWS V13.01,2013-06-03 20:44:00,
2013-06-03 16:49:00,75.6,15.2,29.21,NNW,328,5.8,22.8,10,0.16,,,0.00,VWS V13.01,2013-06-03 20:49:00,
2013-06-03 16:54:00,75.9,15.5,29.21,NW,305,5.4,22.8,10,0.16,,,0.00,VWS V13.01,2013-06-03 20:54:00,
2013-06-03 16:59:00,76.1,15.6,29.21,North,0,4.0,22.8,10,0.16,,,0.00,VWS V13.01,2013-06-03 20:59:00,
2013-06-03 17:04:00,76.6,16.0,29.21,NW,305,2.7,22.8,10,0.16,,,0.00,VWS V13.01,2013-06-03 21:04:00,
2013-06-03 17:09:00,76.8,16.2,29.21,NNW,327,2.7,22.8,10,0.16,,,0.00,VWS V13.01,2013-06-03 21:09:00,
2013-06-03 17:14:00,76.8,16.2,29.21,North,0,8.3,22.8,10,0.16,,,0.00,VWS V13.01,2013-06-03 21:14:00,
2013-06-03 17:19:00,76.1,15.6,29.21,North,357,5.8,22.8,10,0.16,,,0.00,VWS V13.01,2013-06-03 21:19:00,
2013-06-03 17:24:00,75.7,15.4,29.21,North,353,8.1,22.8,10,0.16,,,0.00,VWS V13.01,2013-06-03 21:24:00,
2013-06-03 17:29:00,76.1,15.6,29.21,WNW,299,4.9,22.8,10,0.16,,,0.00,VWS V13.01,2013-06-03 21:29:00,
2013-06-03 17:34:00,75.9,15.5,29.21,North,353,5.8,22.8,10,0.16,,,0.00,VWS V13.01,2013-06-03 21:34:00,
2013-06-03 17:39:00,76.3,15.8,29.21,NW,307,6.3,22.8,10,0.16,,,0.00,VWS V13.01,2013-06-03 21:39:00,
2013-06-03 17:44:00,76.3,15.8,29.21,WNW,302,6.3,22.8,10,0.16,,,0.00,VWS V13.01,2013-06-03 21:44:00,
2013-06-03 17:49:00,75.7,15.4,29.21,North,353,4.9,22.8,10,0.16,,,0.00,VWS V13.01,2013-06-03 21:49:00,
2013-06-03 17:54:00,75.7,15.4,29.21,North,357,3.6,22.8,10,0.16,,,0.00,VWS V13.01,2013-06-03 21:54:00,
2013-06-03 17:59:00,75.7,15.4,29.21,North,353,6.3,22.8,10,0.16,,,0.00,VWS V13.01,2013-06-03 21:59:00,
2013-06-03 18:04:00,75.6,15.2,29.21,West,264,2.2,22.8,10,0.16,,,0.00,VWS V13.01,2013-06-03 22:04:00,
2013-06-03 18:09:00,75.7,15.4,29.21,North,349,6.3,22.8,10,0.16,,,0.00,VWS V13.01,2013-06-03 22:09:00,
2013-06-03 18:14:00,75.4,15.1,29.21,WNW,301,6.3,22.8,10,0.16,,,0.00,VWS V13.01,2013-06-03 22:14:00,
2013-06-03 18:19:00,75.4,15.1,29.21,NNW,341,5.4,22.8,10,0.16,,,0.00,VWS V13.01,2013-06-03 22:19:00,
2013-06-03 18:24:00,75.4,15.1,29.21,WNW,300,8.1,22.8,10,0.16,,,0.00,VWS V13.01,2013-06-03 22:24:00,
2013-06-03 18:29:00,74.8,16.9,29.21,NNW,333,3.1,22.8,11,0.16,,,0.00,VWS V13.01,2013-06-03 22:29:00,
2013-06-03 18:34:00,74.8,16.9,29.21,NW,305,3.1,22.8,11,0.16,,,0.00,VWS V13.01,2013-06-03 22:34:00,
2013-06-03 18:39:00,74.7,16.7,29.21,North,11,4.5,22.8,11,0.16,,,0.00,VWS V13.01,2013-06-03 22:39:00,
2013-06-03 18:44:00,74.7,16.7,29.21,North,357,2.7,22.8,11,0.16,,,0.00,VWS V13.01,2013-06-03 22:44:00,
2013-06-03 18:49:00,74.3,16.4,29.21,NW,310,2.7,22.8,11,0.16,,,0.00,VWS V13.01,2013-06-03 22:49:00,
2013-06-03 18:54:00,73.6,15.9,29.21,NNW,329,4.0,22.8,11,0.16,,,0.00,VWS V13.01,2013-06-03 22:54:00,
2013-06-03 18:59:00,73.0,15.5,29.21,NE,38,3.1,22.8,11,0.16,,,0.00,VWS V13.01,2013-06-03 22:59:00,
2013-06-03 19:04:00,72.9,15.3,29.21,NNE,16,0.0,22.8,11,0.16,,,0.00,VWS V13.01,2013-06-03 23:04:00,
2013-06-03 19:09:00,72.3,14.9,29.21,NNE,25,2.2,22.8,11,0.16,,,0.00,VWS V13.01,2013-06-03 23:09:00,
2013-06-03 19:14:00,72.1,20.4,29.21,NNE,19,2.7,22.8,14,0.16,,,0.00,VWS V13.01,2013-06-03 23:14:00,
2013-06-03 19:19:00,72.5,15.0,29.21,NNW,345,5.4,22.8,11,0.16,,,0.00,VWS V13.01,2013-06-03 23:19:00,
2013-06-03 19:24:00,73.0,15.5,29.21,North,0,3.6,22.8,11,0.16,,,0.00,VWS V13.01,2013-06-03 23:24:00,
2013-06-03 19:29:00,73.2,21.2,29.21,NNW,330,4.0,22.8,14,0.16,,,0.00,VWS V13.01,2013-06-03 23:29:00,
2013-06-03 19:34:00,73.8,16.0,29.21,NW,326,0.0,22.8,11,0.16,,,0.00,VWS V13.01,2013-06-03 23:34:00,
2013-06-03 19:39:00,74.1,16.3,29.21,NNW,335,2.7,22.8,11,0.16,,,0.00,VWS V13.01,2013-06-03 23:39:00,
2013-06-03 19:44:00,73.8,16.0,29.23,North,357,6.3,22.8,11,0.16,,,0.00,VWS V13.01,2013-06-03 23:44:00,
2013-06-03 19:49:00,73.8,16.0,29.23,NNW,344,3.6,22.8,11,0.16,,,0.00,VWS V13.01,2013-06-03 23:49:00,
2013-06-03 19:54:00,73.6,15.9,29.23,NNW,337,4.0,22.8,11,0.16,,,0.00,VWS V13.01,2013-06-03 23:54:00,
2013-06-03 19:59:00,73.4,15.7,29.21,North,357,3.6,22.8,11,0.16,,,0.00,VWS V13.01,2013-06-03 23:59:00,
2013-06-03 20:04:00,73.2,15.6,29.21,West,265,0.0,22.8,11,0.16,,,0.00,VWS V13.01,2013-06-04 00:04:00,
2013-06-03 20:09:00,72.9,15.3,29.21,North,0,0.0,22.8,11,0.16,,,0.00,VWS V13.01,2013-06-04 00:09:00,
2013-06-03 20:14:00,72.3,14.9,29.23,NNE,17,0.0,22.8,11,0.16,,,0.00,VWS V13.01,2013-06-04 00:14:00,
2013-06-03 20:20:00,72.0,14.6,29.23,NNE,17,0.0,22.8,11,0.16,,,0.00,VWS V13.01,2013-06-04 00:20:00,
2013-06-03 20:24:00,71.8,14.5,29.23,NNE,16,0.0,22.8,11,0.16,,,0.00,VWS V13.01,2013-06-04 00:24:00,
2013-06-03 20:29:00,71.1,19.5,29.23,NNE,16,0.0,22.8,14,0.16,,,0.00,VWS V13.01,2013-06-04 00:29:00,
2013-06-03 20:35:00,70.5,19.1,29.23,NNE,16,0.0,22.8,14,0.16,,,0.00,VWS V13.01,2013-06-04 00:35:00,
2013-06-03 20:39:00,70.3,18.9,29.23,NNE,17,0.0,22.8,14,0.16,,,0.00,VWS V13.01,2013-06-04 00:39:00,
2013-06-03 20:45:00,70.2,18.8,29.23,NNE,17,0.0,22.8,14,0.16,,,0.00,VWS V13.01,2013-06-04 00:45:00,
2013-06-03 20:50:00,70.0,18.6,29.23,NNE,16,0.0,22.8,14,0.16,,,0.00,VWS V13.01,2013-06-04 00:50:00,
2013-06-03 20:55:00,69.6,20.0,29.23,NNE,17,0.0,22.8,15,0.16,,,0.00,VWS V13.01,2013-06-04 00:55:00,
2013-06-03 21:00:00,68.9,19.4,29.26,NNE,17,0.0,22.8,15,0.16,,,0.00,VWS V13.01,2013-06-04 01:00:00,
2013-06-03 21:05:00,68.2,21.7,29.26,NNE,16,0.0,22.8,17,0.16,,,0.00,VWS V13.01,2013-06-04 01:05:00,
2013-06-03 21:12:00,67.6,27.5,29.26,NNE,16,2.2,22.8,22,0.16,,,0.00,VWS V13.01,2013-06-04 01:12:00,
2013-06-03 21:17:00,67.1,28.1,29.26,NNE,16,0.0,22.8,23,0.16,,,0.00,VWS V13.01,2013-06-04 01:17:00,
2013-06-03 21:22:00,66.7,28.8,29.26,NNE,16,0.0,22.8,24,0.16,,,0.00,VWS V13.01,2013-06-04 01:22:00,
2013-06-03 21:27:00,66.2,28.4,29.26,NNE,16,2.2,22.8,24,0.16,,,0.00,VWS V13.01,2013-06-04 01:27:00,
2013-06-03 21:32:00,66.0,30.2,29.26,NNE,16,0.0,22.8,26,0.16,,,0.00,VWS V13.01,2013-06-04 01:32:00,
2013-06-03 21:37:00,65.8,31.9,29.26,NNE,16,0.0,22.8,28,0.16,,,0.00,VWS V13.01,2013-06-04 01:37:00,
2013-06-03 21:42:00,65.5,35.6,29.26,NNE,16,0.0,22.8,33,0.16,,,0.00,VWS V13.01,2013-06-04 01:42:00,
2013-06-03 21:47:00,65.1,35.3,29.26,East,79,0.0,22.8,33,0.16,,,0.00,VWS V13.01,2013-06-04 01:47:00,
2013-06-03 21:52:00,64.8,35.0,29.26,East,79,0.0,22.8,33,0.16,,,0.00,VWS V13.01,2013-06-04 01:52:00,
2013-06-03 21:57:00,64.4,34.7,29.29,East,79,0.0,22.8,33,0.16,,,0.00,VWS V13.01,2013-06-04 01:57:00,
2013-06-03 22:02:00,64.2,35.3,29.29,East,79,0.0,22.8,34,0.16,,,0.00,VWS V13.01,2013-06-04 02:02:00,
2013-06-03 22:07:00,63.9,35.7,29.29,WSW,239,0.0,22.8,35,0.16,,,0.00,VWS V13.01,2013-06-04 02:07:00,
2013-06-03 22:12:00,63.7,36.2,29.29,North,0,0.0,22.8,36,0.16,,,0.00,VWS V13.01,2013-06-04 02:12:00,
2013-06-03 22:17:00,63.5,36.1,29.29,North,357,0.0,22.8,36,0.16,,,0.00,VWS V13.01,2013-06-04 02:17:00,
2013-06-03 22:22:00,63.3,35.9,29.29,North,1,0.0,22.8,36,0.16,,,0.00,VWS V13.01,2013-06-04 02:22:00,
2013-06-03 22:27:00,63.1,36.5,29.29,North,357,0.0,22.8,37,0.16,,,0.00,VWS V13.01,2013-06-04 02:27:00,
2013-06-03 22:32:00,63.0,36.3,29.29,North,0,0.0,22.8,37,0.16,,,0.00,VWS V13.01,2013-06-04 02:32:00,
2013-06-03 22:37:00,62.6,36.0,29.29,North,357,0.0,22.8,37,0.16,,,0.00,VWS V13.01,2013-06-04 02:37:00,
2013-06-03 22:42:00,62.4,36.5,29.29,North,357,0.0,22.8,38,0.16,,,0.00,VWS V13.01,2013-06-04 02:42:00,
2013-06-03 22:47:00,62.2,37.0,29.29,North,0,0.0,22.8,39,0.16,,,0.00,VWS V13.01,2013-06-04 02:47:00,
2013-06-03 22:52:00,62.1,37.5,29.29,North,1,0.0,22.8,40,0.16,,,0.00,VWS V13.01,2013-06-04 02:52:00,
2013-06-03 22:57:00,61.7,37.2,29.29,North,357,0.0,22.8,40,0.16,,,0.00,VWS V13.01,2013-06-04 02:57:00,
2013-06-03 23:02:00,61.5,37.6,29.29,North,0,0.0,22.8,41,0.16,,,0.00,VWS V13.01,2013-06-04 03:02:00,
2013-06-03 23:07:00,61.3,38.1,29.29,North,357,0.0,22.8,42,0.16,,,0.00,VWS V13.01,2013-06-04 03:07:00,
2013-06-03 23:12:00,61.3,39.3,29.29,North,357,0.0,22.8,44,0.16,,,0.00,VWS V13.01,2013-06-04 03:12:00,
2013-06-03 23:17:00,61.2,39.1,29.29,North,0,0.0,22.8,44,0.16,,,0.00,VWS V13.01,2013-06-04 03:17:00,
2013-06-03 23:23:00,61.0,38.9,29.29,North,0,0.0,22.8,44,0.16,,,0.00,VWS V13.01,2013-06-04 03:23:00,
2013-06-03 23:28:00,60.8,38.8,29.32,North,357,0.0,22.8,44,0.16,,,0.00,VWS V13.01,2013-06-04 03:28:00,
2013-06-03 23:33:00,60.6,39.2,29.32,North,0,0.0,22.8,45,0.16,,,0.00,VWS V13.01,2013-06-04 03:33:00,
2013-06-03 23:38:00,60.4,39.0,29.32,North,0,0.0,22.8,45,0.16,,,0.00,VWS V13.01,2013-06-04 03:38:00,
2013-06-03 23:43:00,60.4,39.0,29.29,North,357,0.0,22.8,45,0.16,,,0.00,VWS V13.01,2013-06-04 03:43:00,
2013-06-03 23:48:00,60.3,38.8,29.29,North,357,0.0,22.8,45,0.16,,,0.00,VWS V13.01,2013-06-04 03:48:00,
2013-06-03 23:53:00,60.1,39.2,29.29,North,357,0.0,22.8,46,0.16,,,0.00,VWS V13.01,2013-06-04 03:53:00,
2013-06-03 23:58:00,59.9,39.1,29.29,North,0,0.0,22.8,46,0.16,,,0.00,VWS V13.01,2013-06-04 03:58:00,